createdAt,value
2023-01-21T00:00:46.570Z,98.04
2023-01-21T00:01:46.557Z,97.83
2023-01-21T00:02:46.525Z,97.94
2023-01-21T00:03:46.624Z,97.72
2023-01-21T00:04:46.526Z,97.89
2023-01-21T00:05:46.499Z,97.94
2023-01-21T00:06:46.494Z,97.94
2023-01-21T00:07:46.478Z,97.94
2023-01-21T00:08:46.477Z,97.83
2023-01-21T00:09:46.483Z,98.14
2023-01-21T00:10:46.446Z,97.31
2023-01-21T00:11:46.431Z,97.52
2023-01-21T00:12:46.432Z,97.94
2023-01-21T00:13:46.444Z,97.83
2023-01-21T00:14:46.407Z,97.41
2023-01-21T00:15:46.436Z,97.83
2023-01-21T00:16:46.385Z,97.62
2023-01-21T00:17:46.368Z,97.72
2023-01-21T00:18:46.373Z,97.72
2023-01-21T00:19:46.364Z,97.52
2023-01-21T00:20:46.368Z,98.14
2023-01-21T00:21:46.333Z,97.62
2023-01-21T00:22:46.329Z,97.83
2023-01-21T00:23:46.326Z,98.04
2023-01-21T00:24:46.310Z,97.62
2023-01-21T00:25:46.287Z,97.72
2023-01-21T00:26:46.289Z,97.72
2023-01-21T00:27:46.287Z,97.62
2023-01-21T00:28:46.279Z,97.83
2023-01-21T00:29:46.275Z,97.94
2023-01-21T00:30:46.359Z,98.25
2023-01-21T00:31:46.366Z,98.14
2023-01-21T00:32:46.243Z,97.94
2023-01-21T00:33:46.219Z,98.56
2023-01-21T00:34:46.214Z,98.25
2023-01-21T00:35:46.180Z,98.35
2023-01-21T00:36:46.185Z,98.25
2023-01-21T00:37:46.167Z,98.46
2023-01-21T00:38:46.158Z,98.67
2023-01-21T00:39:46.157Z,98.77
2023-01-21T00:40:46.137Z,98.67
2023-01-21T00:41:46.124Z,98.46
2023-01-21T00:42:46.111Z,98.88
2023-01-21T00:43:46.113Z,98.77
2023-01-21T00:44:46.086Z,98.56
2023-01-21T00:45:46.125Z,99.19
2023-01-21T00:46:46.071Z,99.29
2023-01-21T00:47:46.078Z,99.40
2023-01-21T00:48:46.044Z,99.29
2023-01-21T00:49:46.038Z,99.29
2023-01-21T00:50:46.064Z,98.88
2023-01-21T00:51:46.021Z,98.88
2023-01-21T00:52:46.012Z,98.77
2023-01-21T00:53:45.996Z,98.98
2023-01-21T00:54:45.990Z,98.88
2023-01-21T00:55:45.979Z,98.72
2023-01-21T00:56:45.972Z,99.19
2023-01-21T00:57:45.962Z,98.88
2023-01-21T00:58:45.965Z,98.52
2023-01-21T00:59:45.940Z,98.77
2023-01-21T01:00:45.930Z,99.46
2023-01-21T01:01:45.980Z,99.29
2023-01-21T01:02:45.967Z,99.15
2023-01-21T01:03:45.906Z,99.25
2023-01-21T01:04:45.895Z,99.35
2023-01-21T01:05:45.877Z,99.25
2023-01-21T01:06:45.872Z,99.25
2023-01-21T01:07:45.862Z,98.83
2023-01-21T01:08:45.847Z,99.04
2023-01-21T01:09:45.837Z,99.29
2023-01-21T01:10:45.823Z,98.88
2023-01-21T01:11:45.833Z,98.83
2023-01-21T01:12:45.797Z,98.83
2023-01-21T01:13:45.800Z,99.35
2023-01-21T01:14:45.773Z,99.40
2023-01-21T01:15:45.784Z,99.25
2023-01-21T01:16:45.751Z,99.25
2023-01-21T01:17:45.800Z,99.35
2023-01-21T01:18:45.736Z,98.88
2023-01-21T01:19:45.732Z,98.83
2023-01-21T01:20:46.591Z,98.88
2023-01-21T01:21:45.705Z,99.29
2023-01-21T01:22:45.698Z,98.93
2023-01-21T01:23:45.699Z,98.52
2023-01-21T01:24:45.688Z,98.72
2023-01-21T01:25:45.668Z,98.93
2023-01-21T01:26:45.651Z,98.83
2023-01-21T01:27:45.656Z,99.19
2023-01-21T01:28:45.679Z,99.25
2023-01-21T01:29:45.622Z,98.98
2023-01-21T01:30:46.283Z,98.62
2023-01-21T01:31:45.778Z,98.46
2023-01-21T01:32:45.592Z,98.10
2023-01-21T01:33:45.655Z,98.41
2023-01-21T01:34:45.574Z,98.88
2023-01-21T01:35:45.569Z,98.62
2023-01-21T01:36:45.551Z,98.62
2023-01-21T01:37:45.533Z,98.56
2023-01-21T01:38:45.538Z,98.31
2023-01-21T01:39:45.522Z,98.72
2023-01-21T01:40:45.501Z,98.72
2023-01-21T01:41:45.506Z,98.93
2023-01-21T01:42:45.483Z,98.72
2023-01-21T01:43:45.490Z,98.72
2023-01-21T01:44:45.469Z,98.72
2023-01-21T01:45:45.460Z,98.72
2023-01-21T01:46:45.497Z,98.62
2023-01-21T01:47:45.435Z,98.62
2023-01-21T01:48:45.425Z,98.72
2023-01-21T01:49:45.443Z,98.62
2023-01-21T01:50:45.443Z,98.62
2023-01-21T01:51:45.398Z,98.62
2023-01-21T01:52:45.398Z,98.72
2023-01-21T01:53:45.388Z,98.72
2023-01-21T01:54:45.362Z,99.15
2023-01-21T01:55:45.353Z,98.93
2023-01-21T01:56:45.357Z,98.72
2023-01-21T01:57:45.339Z,98.41
2023-01-21T01:58:45.320Z,99.04
2023-01-21T01:59:45.307Z,98.46
2023-01-21T02:00:45.311Z,98.35
2023-01-21T02:01:45.299Z,98.31
2023-01-21T02:02:45.323Z,98.21
2023-01-21T02:03:45.269Z,98.21
2023-01-21T02:04:45.266Z,97.94
2023-01-21T02:05:45.269Z,97.89
2023-01-21T02:06:45.236Z,97.89
2023-01-21T02:07:45.222Z,97.68
2023-01-21T02:08:45.234Z,97.78
2023-01-21T02:09:45.204Z,98.31
2023-01-21T02:10:45.193Z,97.89
2023-01-21T02:11:45.195Z,97.89
2023-01-21T02:12:45.181Z,97.78
2023-01-21T02:13:45.163Z,97.78
2023-01-21T02:14:45.161Z,97.89
2023-01-21T02:15:45.149Z,97.68
2023-01-21T02:16:45.154Z,97.89
2023-01-21T02:17:45.126Z,97.99
2023-01-21T02:18:45.113Z,97.89
2023-01-21T02:19:52.632Z,97.78
2023-01-21T02:20:45.091Z,97.58
2023-01-21T02:21:45.114Z,97.99
2023-01-21T02:22:45.086Z,97.89
2023-01-21T02:23:45.063Z,97.68
2023-01-21T02:24:45.053Z,97.89
2023-01-21T02:25:45.050Z,97.95
2023-01-21T02:26:45.044Z,97.89
2023-01-21T02:27:45.023Z,97.53
2023-01-21T02:28:45.014Z,97.68
2023-01-21T02:29:45.041Z,97.58
2023-01-21T02:30:45.032Z,97.99
2023-01-21T02:31:45.004Z,97.99
2023-01-21T02:32:44.974Z,97.99
2023-01-21T02:33:44.952Z,97.89
2023-01-21T02:34:44.944Z,97.58
2023-01-21T02:35:44.957Z,97.68
2023-01-21T02:36:44.921Z,97.58
2023-01-21T02:37:44.951Z,97.89
2023-01-21T02:38:44.918Z,97.89
2023-01-21T02:39:44.897Z,97.58
2023-01-21T02:40:44.909Z,97.78
2023-01-21T02:41:44.894Z,97.89
2023-01-21T02:42:44.866Z,97.64
2023-01-21T02:43:44.850Z,97.78
2023-01-21T02:44:44.840Z,97.99
2023-01-21T02:45:44.836Z,97.78
2023-01-21T02:46:44.905Z,98.10
2023-01-21T02:47:44.825Z,97.89
2023-01-21T02:48:44.813Z,97.89
2023-01-21T02:49:44.786Z,97.99
2023-01-21T02:50:44.901Z,98.52
2023-01-21T02:51:44.776Z,98.52
2023-01-21T02:52:44.787Z,97.99
2023-01-21T02:53:44.779Z,98.31
2023-01-21T02:54:44.745Z,97.99
2023-01-21T02:55:44.726Z,97.99
2023-01-21T02:56:44.725Z,97.68
2023-01-21T02:57:44.725Z,97.89
2023-01-21T02:58:44.699Z,97.47
2023-01-21T02:59:44.695Z,97.89
2023-01-21T03:00:44.714Z,97.89
2023-01-21T03:01:44.701Z,97.58
2023-01-21T03:02:44.683Z,97.58
2023-01-21T03:03:44.656Z,97.68
2023-01-21T03:04:44.647Z,97.05
2023-01-21T03:05:44.641Z,97.53
2023-01-21T03:06:44.613Z,97.27
2023-01-21T03:07:44.618Z,97.27
2023-01-21T03:08:44.605Z,97.16
2023-01-21T03:09:44.613Z,97.37
2023-01-21T03:10:44.567Z,98.10
2023-01-21T03:11:44.555Z,97.78
2023-01-21T03:12:44.549Z,98.21
2023-01-21T03:13:44.565Z,97.78
2023-01-21T03:14:44.534Z,97.89
2023-01-21T03:15:44.523Z,97.99
2023-01-21T03:16:44.515Z,97.89
2023-01-21T03:17:44.510Z,97.78
2023-01-21T03:18:44.500Z,98.04
2023-01-21T03:19:44.494Z,97.68
2023-01-21T03:20:44.479Z,98.31
2023-01-21T03:21:44.468Z,98.21
2023-01-21T03:22:44.456Z,98.62
2023-01-21T03:23:44.450Z,98.62
2023-01-21T03:24:44.428Z,99.04
2023-01-21T03:25:44.440Z,98.41
2023-01-21T03:26:44.408Z,98.72
2023-01-21T03:27:44.407Z,98.62
2023-01-21T03:28:44.403Z,98.62
2023-01-21T03:29:44.384Z,98.83
2023-01-21T03:30:44.371Z,98.83
2023-01-21T03:31:44.410Z,98.72
2023-01-21T03:32:44.348Z,98.83
2023-01-21T03:33:46.658Z,99.15
2023-01-21T03:34:44.329Z,99.15
2023-01-21T03:35:44.327Z,99.25
2023-01-21T03:36:44.317Z,98.93
2023-01-21T03:37:44.299Z,99.25
2023-01-21T03:38:44.285Z,99.25
2023-01-21T03:39:44.286Z,98.93
2023-01-21T03:40:44.262Z,99.46
2023-01-21T03:41:44.282Z,98.83
2023-01-21T03:42:44.272Z,98.31
2023-01-21T03:43:44.231Z,98.62
2023-01-21T03:44:44.211Z,98.93
2023-01-21T03:45:44.245Z,98.62
2023-01-21T03:46:44.207Z,98.72
2023-01-21T03:47:44.194Z,98.83
2023-01-21T03:48:44.201Z,99.46
2023-01-21T03:49:44.166Z,98.72
2023-01-21T03:50:44.264Z,98.52
2023-01-21T03:51:44.141Z,98.72
2023-01-21T03:52:44.138Z,98.58
2023-01-21T03:53:44.139Z,98.41
2023-01-21T03:54:44.143Z,98.83
2023-01-21T03:55:44.109Z,98.41
2023-01-21T03:56:44.092Z,99.25
2023-01-21T03:57:44.142Z,98.62
2023-01-21T03:58:44.073Z,98.31
2023-01-21T03:59:44.077Z,98.31
2023-01-21T04:00:44.112Z,98.83
2023-01-21T04:01:44.044Z,98.10
2023-01-21T04:02:44.043Z,98.83
2023-01-21T04:03:44.021Z,98.52
2023-01-21T04:04:44.015Z,98.52
2023-01-21T04:05:44.004Z,98.72
2023-01-21T04:06:43.989Z,98.10
2023-01-21T04:07:43.982Z,98.52
2023-01-21T04:08:43.989Z,98.31
2023-01-21T04:09:43.964Z,98.10
2023-01-21T04:10:43.958Z,98.31
2023-01-21T04:11:43.933Z,98.41
2023-01-21T04:12:43.937Z,98.21
2023-01-21T04:13:43.942Z,98.10
2023-01-21T04:14:43.907Z,98.31
2023-01-21T04:15:43.897Z,98.31
2023-01-21T04:16:43.924Z,98.52
2023-01-21T04:17:43.887Z,98.52
2023-01-21T04:18:43.876Z,98.31
2023-01-21T04:19:43.864Z,98.41
2023-01-21T04:20:43.862Z,97.78
2023-01-21T04:21:43.851Z,97.99
2023-01-21T04:22:43.824Z,97.68
2023-01-21T04:23:43.814Z,97.89
2023-01-21T04:24:43.817Z,97.78
2023-01-21T04:25:43.790Z,97.78
2023-01-21T04:26:43.798Z,97.89
2023-01-21T04:27:43.766Z,97.53
2023-01-21T04:28:43.758Z,97.89
2023-01-21T04:29:43.773Z,97.68
2023-01-21T04:30:43.805Z,97.68
2023-01-21T04:31:43.836Z,97.68
2023-01-21T04:32:43.728Z,97.78
2023-01-21T04:33:43.725Z,97.78
2023-01-21T04:34:43.699Z,97.78
2023-01-21T04:35:43.689Z,97.68
2023-01-21T04:36:43.678Z,97.83
2023-01-21T04:37:43.671Z,97.72
2023-01-21T04:38:43.665Z,97.78
2023-01-21T04:39:43.651Z,97.52
2023-01-21T04:40:43.641Z,97.68
2023-01-21T04:41:43.644Z,97.94
2023-01-21T04:42:43.619Z,98.04
2023-01-21T04:43:43.620Z,97.72
2023-01-21T04:44:43.593Z,98.14
2023-01-21T04:45:43.636Z,98.25
2023-01-21T04:46:43.581Z,97.94
2023-01-21T04:47:43.573Z,98.04
2023-01-21T04:48:43.564Z,97.83
2023-01-21T04:49:43.550Z,97.89
2023-01-21T04:50:43.752Z,98.25
2023-01-21T04:56:20.838Z,98.04
2023-01-21T04:57:20.816Z,97.94
2023-01-21T04:58:20.796Z,98.35
2023-01-21T04:59:20.776Z,98.14
2023-01-21T05:00:20.763Z,98.67
2023-01-21T05:01:20.860Z,98.46
2023-01-21T05:02:20.787Z,98.04
2023-01-21T05:03:20.762Z,98.25
2023-01-21T05:04:20.734Z,98.14
2023-01-21T05:05:20.714Z,98.25
2023-01-21T05:06:20.715Z,97.83
2023-01-21T05:07:21.789Z,98.04
2023-01-21T05:08:20.698Z,97.72
2023-01-21T05:09:20.673Z,97.68
2023-01-21T05:10:20.672Z,97.89
2023-01-21T05:11:20.662Z,97.99
2023-01-21T05:12:20.645Z,98.31
2023-01-21T05:13:20.657Z,97.27
2023-01-21T05:14:20.644Z,97.68
2023-01-21T05:15:20.607Z,97.37
2023-01-21T05:16:20.622Z,97.37
2023-01-21T05:17:20.626Z,97.47
2023-01-21T05:18:20.591Z,97.78
2023-01-21T05:19:20.569Z,97.16
2023-01-21T05:20:20.561Z,97.27
2023-01-21T05:21:20.553Z,97.27
2023-01-21T05:22:20.546Z,97.68
2023-01-21T05:23:20.554Z,97.58
2023-01-21T05:24:20.521Z,97.47
2023-01-21T05:25:20.514Z,97.47
2023-01-21T05:26:20.511Z,97.89
2023-01-21T05:27:20.491Z,97.89
2023-01-21T05:28:20.502Z,97.78
2023-01-21T05:29:20.485Z,97.58
2023-01-21T05:30:20.459Z,97.68
2023-01-21T05:31:28.090Z,97.58
2023-01-21T05:32:20.437Z,97.68
2023-01-21T05:33:20.458Z,97.27
2023-01-21T05:34:20.435Z,97.58
2023-01-21T05:35:20.407Z,97.68
2023-01-21T05:36:20.395Z,97.89
2023-01-21T05:37:20.386Z,97.89
2023-01-21T05:38:20.375Z,97.68
2023-01-21T05:39:20.360Z,97.78
2023-01-21T05:40:20.563Z,97.43
2023-01-21T05:41:20.359Z,97.32
2023-01-21T05:42:20.341Z,97.16
2023-01-21T05:43:20.330Z,97.22
2023-01-21T05:44:20.322Z,97.32
2023-01-21T05:45:20.308Z,96.91
2023-01-21T05:46:20.346Z,96.70
2023-01-21T05:47:20.284Z,96.80
2023-01-21T05:48:20.275Z,96.28
2023-01-21T05:49:20.280Z,96.38
2023-01-21T05:50:20.284Z,96.74
2023-01-21T05:51:20.314Z,96.59
2023-01-21T05:52:20.233Z,97.01
2023-01-21T05:53:20.222Z,96.91
2023-01-21T05:54:20.214Z,96.43
2023-01-21T05:55:20.213Z,96.95
2023-01-21T05:56:20.190Z,96.64
2023-01-21T05:57:20.178Z,97.47
2023-01-21T05:58:20.170Z,97.37
2023-01-21T05:59:20.160Z,97.68
2023-01-21T06:00:20.363Z,97.47
2023-01-21T06:01:20.132Z,98.10
2023-01-21T06:02:20.215Z,97.68
2023-01-21T06:03:20.208Z,97.89
2023-01-21T06:04:21.334Z,97.68
2023-01-21T06:05:20.133Z,97.78
2023-01-21T06:06:20.085Z,97.89
2023-01-21T06:07:20.070Z,97.89
2023-01-21T06:08:20.088Z,97.78
2023-01-21T06:09:20.051Z,97.99
2023-01-21T06:10:20.035Z,98.41
2023-01-21T06:11:20.037Z,98.67
2023-01-21T06:12:20.040Z,98.10
2023-01-21T06:13:20.009Z,97.99
2023-01-21T06:14:20.025Z,98.10
2023-01-21T06:15:19.993Z,98.21
2023-01-21T06:16:19.980Z,98.21
2023-01-21T06:17:19.974Z,98.21
2023-01-21T06:18:19.969Z,97.99
2023-01-21T06:19:19.954Z,97.78
2023-01-21T06:20:19.968Z,97.68
2023-01-21T06:21:19.950Z,97.78
2023-01-21T06:22:19.919Z,97.78
2023-01-21T06:23:19.915Z,97.53
2023-01-21T06:24:19.903Z,97.89
2023-01-21T06:25:19.890Z,97.78
2023-01-21T06:26:19.924Z,97.53
2023-01-21T06:27:19.877Z,97.74
2023-01-21T06:28:19.853Z,97.95
2023-01-21T06:29:19.898Z,97.64
2023-01-21T06:30:19.830Z,97.85
2023-01-21T06:31:19.939Z,96.80
2023-01-21T06:32:19.826Z,97.64
2023-01-21T06:33:19.804Z,96.91
2023-01-21T06:34:19.791Z,97.64
2023-01-21T06:35:19.806Z,97.64
2023-01-21T06:36:19.778Z,97.32
2023-01-21T06:37:19.799Z,97.32
2023-01-21T06:38:19.750Z,96.97
2023-01-21T06:39:19.755Z,96.70
2023-01-21T06:40:19.919Z,96.80
2023-01-21T06:41:19.720Z,96.59
2023-01-21T06:42:19.717Z,96.66
2023-01-21T06:43:19.704Z,96.66
2023-01-21T06:44:19.712Z,96.86
2023-01-21T06:45:19.677Z,96.76
2023-01-21T06:46:19.717Z,96.76
2023-01-21T06:47:19.718Z,96.76
2023-01-21T06:48:19.657Z,96.66
2023-01-21T06:49:19.642Z,96.49
2023-01-21T06:50:19.790Z,96.86
2023-01-21T06:51:19.704Z,96.55
2023-01-21T06:52:19.616Z,96.86
2023-01-21T06:53:19.618Z,96.80
2023-01-21T06:54:19.588Z,96.55
2023-01-21T06:55:19.579Z,96.86
2023-01-21T06:56:19.571Z,96.55
2023-01-21T06:57:19.557Z,96.66
2023-01-21T06:58:19.553Z,96.66
2023-01-21T06:59:19.556Z,96.66
2023-01-21T07:00:20.054Z,96.66
2023-01-21T07:01:19.537Z,96.76
2023-01-21T07:02:19.516Z,96.80
2023-01-21T07:03:19.497Z,96.76
2023-01-21T07:04:19.494Z,96.76
2023-01-21T07:05:19.661Z,96.76
2023-01-21T07:06:19.499Z,96.76
2023-01-21T07:07:27.038Z,96.86
2023-01-21T07:08:19.444Z,96.76
2023-01-21T07:09:19.453Z,96.76
2023-01-21T07:10:19.577Z,96.76
2023-01-21T07:11:19.413Z,96.61
2023-01-21T07:12:19.407Z,96.76
2023-01-21T07:13:19.400Z,96.76
2023-01-21T07:14:19.384Z,96.86
2023-01-21T07:15:19.743Z,96.55
2023-01-21T07:16:19.385Z,96.50
2023-01-21T07:17:19.347Z,96.30
2023-01-21T07:18:19.346Z,95.98
2023-01-21T07:19:19.343Z,95.88
2023-01-21T07:20:19.335Z,95.98
2023-01-21T07:21:19.352Z,95.78
2023-01-21T07:22:19.294Z,95.62
2023-01-21T07:23:19.293Z,95.62
2023-01-21T07:24:19.275Z,95.31
2023-01-21T07:25:19.501Z,95.21
2023-01-21T07:26:19.253Z,94.90
2023-01-21T07:27:19.236Z,95.17
2023-01-21T07:28:19.233Z,95.10
2023-01-21T07:29:19.228Z,95.00
2023-01-21T07:30:19.473Z,95.00
2023-01-21T07:31:19.331Z,95.06
2023-01-21T07:32:19.187Z,94.69
2023-01-21T07:33:19.189Z,94.85
2023-01-21T07:34:19.163Z,95.00
2023-01-21T07:35:19.507Z,94.85
2023-01-21T07:36:19.161Z,95.27
2023-01-21T07:37:19.139Z,95.10
2023-01-21T07:38:19.137Z,95.17
2023-01-21T07:39:19.121Z,94.75
2023-01-21T07:40:19.123Z,94.75
2023-01-21T07:41:19.113Z,94.43
2023-01-21T07:42:19.102Z,94.17
2023-01-21T07:43:19.077Z,94.43
2023-01-21T07:44:19.067Z,94.12
2023-01-21T07:45:19.457Z,94.23
2023-01-21T07:46:19.110Z,94.54
2023-01-21T07:47:19.034Z,94.75
2023-01-21T07:48:19.033Z,94.85
2023-01-21T07:49:19.009Z,94.23
2023-01-21T07:50:19.010Z,94.23
2023-01-21T07:51:19.109Z,94.12
2023-01-21T07:52:18.992Z,94.33
2023-01-21T07:53:18.974Z,94.33
2023-01-21T07:54:18.958Z,94.02
2023-01-21T07:55:19.223Z,94.75
2023-01-21T07:56:18.947Z,94.75
2023-01-21T07:57:19.024Z,94.75
2023-01-21T07:58:18.922Z,94.33
2023-01-21T07:59:18.904Z,94.02
2023-01-21T08:00:18.921Z,94.12
2023-01-21T08:01:18.927Z,94.43
2023-01-21T08:02:18.987Z,94.43
2023-01-21T08:03:18.871Z,94.23
2023-01-21T08:04:18.863Z,94.39
2023-01-21T08:05:19.231Z,94.23
2023-01-21T08:06:18.841Z,94.43
2023-01-21T08:07:18.826Z,94.70
2023-01-21T08:08:18.820Z,94.29
2023-01-21T08:09:18.803Z,94.33
2023-01-21T08:10:18.814Z,93.91
2023-01-21T08:11:18.780Z,94.18
2023-01-21T08:12:18.793Z,93.87
2023-01-21T08:13:18.777Z,94.08
2023-01-21T08:14:18.744Z,94.18
2023-01-21T08:15:19.161Z,93.98
2023-01-21T08:16:18.828Z,94.49
2023-01-21T08:17:18.721Z,94.49
2023-01-21T08:18:18.712Z,94.18
2023-01-21T08:19:18.694Z,93.98
2023-01-21T08:20:18.695Z,94.39
2023-01-21T08:21:18.666Z,94.39
2023-01-21T08:22:18.666Z,93.77
2023-01-21T08:23:18.661Z,93.66
2023-01-21T08:24:18.651Z,93.98
2023-01-21T08:25:18.930Z,93.73
2023-01-21T08:26:18.621Z,93.62
2023-01-21T08:27:18.604Z,93.77
2023-01-21T08:28:18.606Z,93.87
2023-01-21T08:29:18.606Z,93.87
2023-01-21T08:30:18.587Z,93.98
2023-01-21T08:31:18.669Z,93.66
2023-01-21T08:32:18.555Z,93.35
2023-01-21T08:33:18.551Z,93.66
2023-01-21T08:34:18.538Z,93.35
2023-01-21T08:35:18.817Z,93.77
2023-01-21T08:36:18.517Z,93.41
2023-01-21T08:37:18.530Z,93.46
2023-01-21T08:38:18.509Z,93.46
2023-01-21T08:39:18.480Z,93.73
2023-01-21T08:40:18.494Z,93.52
2023-01-21T08:41:18.467Z,93.41
2023-01-21T08:42:18.462Z,93.77
2023-01-21T08:43:18.440Z,93.41
2023-01-21T08:44:18.432Z,93.83
2023-01-21T08:45:18.679Z,93.56
2023-01-21T08:46:18.411Z,93.35
2023-01-21T08:47:18.403Z,93.31
2023-01-21T08:48:18.411Z,93.04
2023-01-21T08:49:18.386Z,92.89
2023-01-21T08:50:18.380Z,93.20
2023-01-21T08:51:18.442Z,92.47
2023-01-21T08:52:18.349Z,92.89
2023-01-21T08:53:18.356Z,92.89
2023-01-21T08:54:18.332Z,93.41
2023-01-21T08:55:18.638Z,92.89
2023-01-21T08:56:18.320Z,93.10
2023-01-21T08:57:18.303Z,93.10
2023-01-21T08:58:18.283Z,93.10
2023-01-21T08:59:18.278Z,93.52
2023-01-21T09:00:18.265Z,93.52
2023-01-21T09:01:18.344Z,93.41
2023-01-21T09:02:18.319Z,93.31
2023-01-21T09:03:18.248Z,93.20
2023-01-21T09:04:18.222Z,93.41
2023-01-21T09:05:18.553Z,93.58
2023-01-21T09:06:18.201Z,93.52
2023-01-21T09:07:18.196Z,93.52
2023-01-21T09:08:18.185Z,93.16
2023-01-21T09:09:18.199Z,93.62
2023-01-21T09:10:18.168Z,93.10
2023-01-21T09:11:18.171Z,93.41
2023-01-21T09:12:18.146Z,93.41
2023-01-21T09:13:18.136Z,93.62
2023-01-21T09:14:18.118Z,93.52
2023-01-21T09:15:18.458Z,93.31
2023-01-21T09:16:18.173Z,93.68
2023-01-21T09:17:18.157Z,93.37
2023-01-21T09:18:18.084Z,93.58
2023-01-21T09:19:18.064Z,93.68
2023-01-21T09:20:18.058Z,93.58
2023-01-21T09:21:18.047Z,93.05
2023-01-21T09:22:18.039Z,93.16
2023-01-21T09:23:18.029Z,93.37
2023-01-21T09:24:18.039Z,93.27
2023-01-21T09:25:18.547Z,93.05
2023-01-21T09:26:18.015Z,93.27
2023-01-21T09:27:17.983Z,93.23
2023-01-21T09:28:17.968Z,93.54
2023-01-21T09:29:17.981Z,92.80
2023-01-21T09:30:17.954Z,92.91
2023-01-21T09:31:17.976Z,92.91
2023-01-21T09:32:17.923Z,92.91
2023-01-21T09:33:17.934Z,93.27
2023-01-21T09:34:17.909Z,93.01
2023-01-21T09:35:18.249Z,92.43
2023-01-21T09:36:17.897Z,92.95
2023-01-21T09:37:17.901Z,92.49
2023-01-21T09:38:17.870Z,92.70
2023-01-21T09:39:17.854Z,92.49
2023-01-21T09:40:17.844Z,92.70
2023-01-21T09:41:17.835Z,92.80
2023-01-21T09:42:17.844Z,92.49
2023-01-21T09:43:17.864Z,92.08
2023-01-21T09:44:17.811Z,92.80
2023-01-21T09:45:18.215Z,93.01
2023-01-21T09:46:17.857Z,92.49
2023-01-21T09:47:17.775Z,92.60
2023-01-21T09:48:17.771Z,93.01
2023-01-21T09:49:17.787Z,92.70
2023-01-21T09:50:17.745Z,92.66
2023-01-21T09:51:17.756Z,92.60
2023-01-21T09:52:17.731Z,92.49
2023-01-21T09:53:17.748Z,92.76
2023-01-21T09:54:17.705Z,92.91
2023-01-21T09:55:18.197Z,92.80
2023-01-21T09:56:17.681Z,92.55
2023-01-21T09:57:17.684Z,92.45
2023-01-21T09:58:17.673Z,92.08
2023-01-21T09:59:19.503Z,92.29
2023-01-21T10:00:17.651Z,92.24
2023-01-21T10:01:17.695Z,92.29
2023-01-21T10:02:17.613Z,92.35
2023-01-21T10:03:17.609Z,92.35
2023-01-21T10:04:17.657Z,92.03
2023-01-21T10:05:17.999Z,92.18
2023-01-21T10:06:17.567Z,92.14
2023-01-21T10:07:17.560Z,92.03
2023-01-21T10:08:17.544Z,91.83
2023-01-21T10:09:17.539Z,92.03
2023-01-21T10:10:17.579Z,91.99
2023-01-21T10:11:17.519Z,91.78
2023-01-21T10:12:17.503Z,92.20
2023-01-21T10:13:17.496Z,91.68
2023-01-21T10:14:17.503Z,91.99
2023-01-21T10:15:17.736Z,92.03
2023-01-21T10:16:17.536Z,91.99
2023-01-21T10:17:17.448Z,91.78
2023-01-21T10:18:17.441Z,91.78
2023-01-21T10:19:17.433Z,91.78
2023-01-21T10:20:17.434Z,91.62
2023-01-21T10:21:17.438Z,91.89
2023-01-21T10:22:17.415Z,92.20
2023-01-21T10:23:17.391Z,92.10
2023-01-21T10:24:17.394Z,92.30
2023-01-21T10:25:17.788Z,91.99
2023-01-21T10:26:17.363Z,92.51
2023-01-21T10:27:17.351Z,92.10
2023-01-21T10:28:17.330Z,91.68
2023-01-21T10:29:17.333Z,92.10
2023-01-21T10:30:17.323Z,91.89
2023-01-21T10:31:17.435Z,92.10
2023-01-21T10:32:17.301Z,92.20
2023-01-21T10:33:17.289Z,92.30
2023-01-21T10:34:17.269Z,92.61
2023-01-21T10:35:17.622Z,92.30
2023-01-21T10:36:17.280Z,92.20
2023-01-21T10:37:17.260Z,92.20
2023-01-21T10:38:17.235Z,92.10
2023-01-21T10:39:17.246Z,91.89
2023-01-21T10:40:17.250Z,92.20
2023-01-21T10:41:17.204Z,92.20
2023-01-21T10:42:17.194Z,92.10
2023-01-21T10:43:17.180Z,92.10
2023-01-21T10:44:17.182Z,92.51
2023-01-21T10:45:17.515Z,92.45
2023-01-21T10:46:17.231Z,92.61
2023-01-21T10:47:17.139Z,92.45
2023-01-21T10:48:17.121Z,92.97
2023-01-21T10:49:17.106Z,93.07
2023-01-21T10:50:17.104Z,93.24
2023-01-21T10:51:17.132Z,93.03
2023-01-21T10:52:17.106Z,93.14
2023-01-21T10:53:17.094Z,93.45
2023-01-21T10:54:17.086Z,93.45
2023-01-21T10:55:17.273Z,93.35
2023-01-21T10:56:17.063Z,93.39
2023-01-21T10:57:17.031Z,93.18
2023-01-21T10:58:17.049Z,92.93
2023-01-21T10:59:17.042Z,93.49
2023-01-21T11:00:17.006Z,93.76
2023-01-21T11:01:17.102Z,93.45
2023-01-21T11:02:17.098Z,93.76
2023-01-21T11:03:16.964Z,93.66
2023-01-21T11:04:16.956Z,93.76
2023-01-21T11:05:17.257Z,93.45
2023-01-21T11:06:16.939Z,93.87
2023-01-21T11:07:16.940Z,93.55
2023-01-21T11:08:16.917Z,93.66
2023-01-21T11:09:16.927Z,93.66
2023-01-21T11:10:16.893Z,93.55
2023-01-21T11:11:16.879Z,93.55
2023-01-21T11:12:16.886Z,93.66
2023-01-21T11:13:16.861Z,93.66
2023-01-21T11:14:16.854Z,93.55
2023-01-21T11:15:17.224Z,93.03
2023-01-21T11:16:16.821Z,93.10
2023-01-21T11:17:16.821Z,92.99
2023-01-21T11:18:16.817Z,92.99
2023-01-21T11:19:16.836Z,93.30
2023-01-21T11:20:16.792Z,93.41
2023-01-21T11:21:16.779Z,93.51
2023-01-21T11:22:16.768Z,93.26
2023-01-21T11:23:16.761Z,92.94
2023-01-21T11:24:16.737Z,93.26
2023-01-21T11:25:17.030Z,92.78
2023-01-21T11:26:16.714Z,92.99
2023-01-21T11:27:16.711Z,93.41
2023-01-21T11:28:16.706Z,93.30
2023-01-21T11:29:16.684Z,92.99
2023-01-21T11:30:37.274Z,93.10
2023-01-21T11:31:17.781Z,93.30
2023-01-21T11:32:16.776Z,93.10
2023-01-21T11:33:16.645Z,92.99
2023-01-21T11:34:16.641Z,93.30
2023-01-21T11:35:16.647Z,93.10
2023-01-21T11:36:16.623Z,93.05
2023-01-21T11:37:16.600Z,92.94
2023-01-21T11:38:16.590Z,92.63
2023-01-21T11:39:16.595Z,92.32
2023-01-21T11:40:19.044Z,92.63
2023-01-21T11:41:16.605Z,92.22
2023-01-21T11:42:16.552Z,92.68
2023-01-21T11:43:16.543Z,92.74
2023-01-21T11:44:16.540Z,93.16
2023-01-21T11:45:16.782Z,92.94
2023-01-21T11:46:16.542Z,92.84
2023-01-21T11:47:16.529Z,92.94
2023-01-21T11:48:16.480Z,92.32
2023-01-21T11:49:16.480Z,92.74
2023-01-21T11:50:16.799Z,92.74
2023-01-21T11:51:16.539Z,92.22
2023-01-21T11:52:16.464Z,92.53
2023-01-21T11:53:16.455Z,92.53
2023-01-21T11:54:16.434Z,92.22
2023-01-21T11:55:16.415Z,92.53
2023-01-21T11:56:16.400Z,92.28
2023-01-21T11:57:16.415Z,92.22
2023-01-21T11:58:16.381Z,91.97
2023-01-21T11:59:16.377Z,92.28
2023-01-21T12:00:16.635Z,92.18
2023-01-21T12:01:16.344Z,91.86
2023-01-21T12:02:16.403Z,91.97
2023-01-21T12:03:16.325Z,92.18
2023-01-21T12:04:16.312Z,92.28
2023-01-21T12:05:16.309Z,91.45
2023-01-21T12:06:16.300Z,91.55
2023-01-21T12:07:16.321Z,91.76
2023-01-21T12:08:16.287Z,92.03
2023-01-21T12:09:16.270Z,91.83
2023-01-21T12:10:16.626Z,91.83
2023-01-21T12:11:16.250Z,91.41
2023-01-21T12:12:16.235Z,91.41
2023-01-21T12:13:16.258Z,91.41
2023-01-21T12:14:16.229Z,91.66
2023-01-21T12:15:16.200Z,91.93
2023-01-21T12:16:16.272Z,91.62
2023-01-21T12:17:16.197Z,91.55
2023-01-21T12:18:16.182Z,92.07
2023-01-21T12:19:16.182Z,92.07
2023-01-21T12:20:16.481Z,92.55
2023-01-21T12:21:16.149Z,92.35
2023-01-21T12:22:16.141Z,91.83
2023-01-21T12:23:16.143Z,91.83
2023-01-21T12:24:16.117Z,91.93
2023-01-21T12:25:16.103Z,91.55
2023-01-21T12:26:16.085Z,92.38
2023-01-21T12:27:16.080Z,92.18
2023-01-21T12:28:16.070Z,92.69
2023-01-21T12:29:16.708Z,92.18
2023-01-21T12:30:16.537Z,92.59
2023-01-21T12:31:16.140Z,92.38
2023-01-21T12:32:16.030Z,92.38
2023-01-21T12:33:16.020Z,92.38
2023-01-21T12:34:16.006Z,92.18
2023-01-21T12:35:16.458Z,92.28
2023-01-21T12:36:15.992Z,92.69
2023-01-21T12:37:15.992Z,92.55
2023-01-21T12:38:15.965Z,92.66
2023-01-21T12:39:15.971Z,92.24
2023-01-21T12:40:16.242Z,92.03
2023-01-21T12:41:15.927Z,92.14
2023-01-21T12:42:15.940Z,92.55
2023-01-21T12:43:15.936Z,92.14
2023-01-21T12:44:15.910Z,92.35
2023-01-21T12:45:16.209Z,92.14
2023-01-21T12:46:15.952Z,92.03
2023-01-21T12:47:15.876Z,92.14
2023-01-21T12:48:15.872Z,92.03
2023-01-21T12:49:15.859Z,92.24
2023-01-21T12:50:15.877Z,91.93
2023-01-21T12:51:15.957Z,91.89
2023-01-21T12:52:15.824Z,91.58
2023-01-21T12:53:15.836Z,91.58
2023-01-21T12:54:15.811Z,91.37
2023-01-21T12:55:16.169Z,91.78
2023-01-21T12:56:15.784Z,91.37
2023-01-21T12:57:15.769Z,91.37